Latest Weather Observations for Centre Island

IDD60801

Issued at 9:21 am CST Wednesday 25 May 2022 (issued every 10 minutes, with the page automatically refreshed every 10 minutes)

About weather observations | Map of weather stations | Latest weather observations for NT | Other Formats
Station Details ID: 014703 Name: CENTRE ISLAND Lat: -15.74 Lon: 136.82 Height: 12.2 m
Data from the previous 72 hours. | See also: Recent months at Centre Island
Date/Time
CST
Temp
°C
App
Temp
°C
Dew
Point
°C
Rel
Hum
%
Delta-T
°C
Wind Press
QNH
hPa
Press
MSL
hPa
Rain since
9am
mm
Dir  Spd
km/h
Gust
km/h
Spd
kts
Gust
kts
25/09:00am 25.2 25.1 20.0 73 3.4 S 20 24 11 13 1014.6 1014.6 0.0
25/08:30am 24.6 24.7 20.3 77 2.8 S 20 26 11 14 1014.5 1014.5 0.0
25/08:00am 24.0 23.8 20.5 81 2.3 SSW 22 26 12 14 1014.4 1014.4 0.0
25/07:30am 23.5 23.4 20.8 85 1.8 SSW 22 26 12 14 1014.2 1014.2 0.0
25/07:00am 22.8 23.1 20.7 88 1.4 SSW 20 24 11 13 1013.7 1013.7 0.0
25/06:30am 22.8 23.8 21.1 90 1.1 SSW 17 20 9 11 1013.4 1013.4 0.0
25/06:00am 22.6 23.8 20.7 89 1.2 S 15 17 8 9 1013.0 1013.0 0.0
25/05:30am 22.6 23.4 20.7 89 1.2 S 17 19 9 10 1012.7 1012.7 0.0
25/05:00am 23.1 24.3 21.4 90 1.1 S 17 20 9 11 1012.6 1012.6 0.0
25/04:30am 23.2 26.0 21.5 90 1.1 SSW 9 11 5 6 1012.3 1012.3 0.0
25/04:00am 23.1 25.8 21.4 90 1.1 SSW 9 11 5 6 1012.5 1012.5 0.0
25/03:30am 23.1 25.7 21.2 89 1.2 SSW 9 11 5 6 1012.5 1012.5 0.0
25/03:00am 23.3 25.1 21.2 88 1.4 SSW 13 15 7 8 1013.0 1013.0 0.0
25/02:30am 23.4 25.2 21.1 87 1.5 SW 13 15 7 8 1013.4 1013.4 0.0
25/02:00am 23.8 25.4 21.5 87 1.5 SSW 15 20 8 11 1013.7 1013.7 0.0
25/01:30am 24.6 27.2 21.9 85 1.8 SSW 11 15 6 8 1014.1 1014.1 0.0
25/01:00am 23.9 27.2 21.4 86 1.6 WSW 6 7 3 4 1014.0 1014.0 0.0
25/12:30am 24.2 27.7 21.1 83 2.0 NNE 4 7 2 4 1013.9 1013.9 0.0
25/12:00am 25.2 28.0 21.5 80 2.5 NE 9 11 5 6 1013.8 1013.8 0.0
 
Date/Time
CST
Temp
°C
App
Temp
°C
Dew
Point
°C
Rel
Hum
%
Delta-T
°C
Wind Press
QNH
hPa
Press
MSL
hPa
Rain since
9am
mm
Dir  Spd
km/h
Gust
km/h
Spd
kts
Gust
kts
24/11:30pm 25.2 27.5 21.3 79 2.6 NE 11 13 6 7 1014.0 1014.0 0.0
24/11:00pm 25.2 27.5 21.3 79 2.6 NE 11 13 6 7 1014.2 1014.2 0.0
24/10:30pm 25.1 27.6 21.0 78 2.7 ENE 9 11 5 6 1014.4 1014.4 0.0
24/10:00pm 25.4 27.2 21.1 77 2.8 ENE 13 15 7 8 1014.3 1014.3 0.0
24/09:30pm 25.6 26.9 20.8 75 3.2 NE 15 17 8 9 1014.4 1014.4 0.0
24/09:00pm 25.6 27.1 20.6 74 3.3 ENE 13 17 7 9 1014.5 1014.5 0.0
24/08:30pm 25.7 26.8 20.5 73 3.4 NE 15 17 8 9 1014.4 1014.4 0.0
24/08:00pm 25.8 26.7 20.1 71 3.7 ENE 15 17 8 9 1014.1 1014.1 0.0
24/07:30pm 25.9 27.1 19.8 69 4.0 NE 13 19 7 10 1013.6 1013.6 0.0
24/07:00pm 26.2 26.7 19.3 65 4.4 NE 15 19 8 10 1013.4 1013.4 0.0
24/06:30pm 26.5 26.1 18.1 60 5.3 ENE 17 20 9 11 1013.1 1013.1 0.0
24/06:00pm 26.9 26.1 17.9 57 5.7 E 19 22 10 12 1012.7 1012.7 0.0
24/05:30pm 27.5 27.2 18.2 57 5.9 ENE 17 20 9 11 1012.4 1012.4 0.0
24/05:00pm 28.2 27.2 18.0 54 6.5 E 20 24 11 13 1011.9 1011.9 0.0
24/04:30pm 28.7 27.4 17.2 49 7.2 E 20 24 11 13 1011.8 1011.8 0.0
24/04:00pm 29.7 29.6 17.8 48 7.6 E 15 19 8 10 1011.8 1011.8 0.0
24/03:30pm 30.0 29.8 17.5 47 7.9 ENE 15 17 8 9 1011.9 1011.9 0.0
24/03:00pm 29.7 30.6 17.5 48 7.7 ESE 9 11 5 6 1011.9 1011.9 0.0
24/02:30pm 30.1 30.6 17.5 46 8.0 ESE 11 15 6 8 1012.0 1012.0 0.0
24/02:00pm 29.7 29.5 16.8 45 8.1 E 13 15 7 8 1012.1 1012.1 0.0
24/01:30pm 30.0 28.8 16.1 43 8.6 E 17 19 9 10 1012.5 1012.5 0.0
24/01:00pm 29.4 28.0 16.9 47 7.9 ESE 20 26 11 14 1012.8 1012.8 0.0
24/12:30pm 29.0 26.4 16.9 48 7.6 ESE 26 30 14 16 1013.4 1013.4 0.0
24/12:00pm 29.1 26.6 17.0 48 7.6 ESE 26 30 14 16 1013.8 1013.8 0.0
24/11:30am 28.1 25.8 17.6 53 6.6 ESE 26 28 14 15 1014.2 1014.2 0.0
24/11:00am 28.0 25.7 17.5 52 6.6 ESE 26 30 14 16 1014.5 1014.5 0.0
24/10:30am 27.1 24.1 16.7 53 6.5 ESE 28 35 15 19 1014.7 1014.7 0.0
24/10:00am 26.3 21.8 16.5 54 6.1 SE 35 39 19 21 1014.7 1014.7 0.0
24/09:30am 25.6 21.0 16.2 56 5.8 ESE 35 41 19 22 1014.8 1014.8 0.0
24/09:00am 25.2 21.1 16.4 58 5.4 SE 33 39 18 21 1014.7 1014.7 0.0
24/08:30am 24.8 20.3 16.5 60 5.1 SE 35 39 19 21 1014.3 1014.3 0.0
24/08:00am 24.7 20.3 16.7 61 4.9 SE 35 41 19 22 1014.0 1014.0 0.0
24/07:30am 24.4 19.6 16.6 61 4.8 SE 37 41 20 22 1013.8 1013.8 0.0
24/07:00am 24.3 19.3 17.1 64 4.5 SE 39 46 21 25 1013.6 1013.6 0.0
24/06:30am 24.1 18.9 16.6 63 4.6 SE 39 46 21 25 1013.4 1013.4 0.0
24/06:00am 24.1 18.5 16.6 63 4.6 SE 41 46 22 25 1013.2 1013.2 0.0
24/05:30am 24.5 20.2 17.7 66 4.2 SE 37 43 20 23 1013.1 1013.1 0.0
24/05:00am 23.8 22.1 19.7 78 2.6 SE 28 32 15 17 1013.1 1013.1 0.0
24/04:30am 23.8 23.0 20.1 80 2.4 SE 24 28 13 15 1013.1 1013.1 0.0
24/04:00am 24.1 23.5 20.6 81 2.3 SE 24 28 13 15 1013.0 1013.0 0.0
24/03:30am 24.0 24.0 20.9 83 2.0 SE 22 24 12 13 1012.9 1012.9 0.0
24/03:00am 24.2 24.4 21.3 84 1.9 SSE 22 24 12 13 1012.9 1012.9 0.0
24/02:30am 24.4 25.6 21.5 84 1.9 SE 17 20 9 11 1013.0 1013.0 0.0
24/02:00am 24.8 26.0 21.5 82 2.2 SE 17 19 9 10 1013.0 1013.0 0.0
24/01:30am 25.8 26.1 20.8 74 3.3 ESE 20 24 11 13 1013.1 1013.1 0.0
24/01:00am 25.9 25.4 20.7 73 3.4 ESE 24 28 13 15 1013.1 1013.1 0.0
24/12:30am 25.9 25.9 20.9 74 3.3 E 22 26 12 14 1013.2 1013.2 0.0
24/12:00am 25.9 25.3 20.5 72 3.5 E 24 26 13 14 1013.4 1013.4 0.0
 
Date/Time
CST
Temp
°C
App
Temp
°C
Dew
Point
°C
Rel
Hum
%
Delta-T
°C
Wind Press
QNH
hPa
Press
MSL
hPa
Rain since
9am
mm
Dir  Spd
km/h
Gust
km/h
Spd
kts
Gust
kts
23/11:30pm 26.0 26.4 21.0 74 3.3 E 20 24 11 13 1013.5 1013.5 0.0
23/11:00pm 26.0 26.6 20.3 71 3.7 E 17 20 9 11 1013.6 1013.6 0.0
23/10:30pm 26.1 26.9 20.7 72 3.5 ENE 17 20 9 11 1013.7 1013.7 0.0
23/10:00pm 26.1 27.1 20.2 70 3.8 ENE 15 19 8 10 1013.8 1013.8 0.0
23/09:30pm 26.1 26.4 19.7 68 4.1 NE 17 20 9 11 1013.9 1013.9 0.0
23/09:00pm 26.3 26.3 19.7 67 4.3 ENE 19 22 10 12 1013.9 1013.9 0.0
23/08:30pm 26.3 25.7 19.7 67 4.3 ENE 22 26 12 14 1013.8 1013.8 0.0
23/08:00pm 26.3 26.1 19.7 67 4.3 NE 20 24 11 13 1013.5 1013.5 0.0
23/07:30pm 26.4 25.7 19.5 66 4.5 NE 22 28 12 15 1013.0 1013.0 0.0
23/07:00pm 26.5 25.5 19.6 66 4.5 ENE 24 28 13 15 1012.8 1012.8 0.0
23/06:30pm 26.7 25.8 19.8 66 4.5 ENE 24 28 13 15 1012.5 1012.5 0.0
23/06:00pm 26.9 25.7 19.3 63 4.9 ENE 24 28 13 15 1012.2 1012.2 0.0
23/05:30pm 27.4 25.7 18.9 59 5.5 ENE 26 32 14 17 1011.9 1011.9 0.0
23/05:00pm 28.2 26.5 18.9 57 6.0 ENE 26 30 14 16 1011.7 1011.7 0.0
23/04:30pm 28.6 26.9 19.0 56 6.2 ENE 26 32 14 17 1011.7 1011.7 0.0
23/04:00pm 28.9 26.6 18.4 53 6.7 ENE 28 33 15 18 1011.7 1011.7 0.0
23/03:30pm 29.4 27.4 19.1 54 6.7 ENE 28 33 15 18 1011.8 1011.8 0.0
23/03:00pm 29.2 26.7 18.9 53 6.7 E 30 35 16 19 1012.0 1012.0 0.0
23/02:30pm 30.4 28.5 18.5 49 7.7 E 26 32 14 17 1012.2 1012.2 0.0
23/02:00pm 30.3 28.0 17.7 46 8.0 E 26 32 14 17 1012.3 1012.3 0.0
23/01:30pm 29.8 27.5 17.6 48 7.8 E 26 32 14 17 1012.8 1012.8 0.0
23/01:00pm 29.1 27.5 19.1 54 6.5 ESE 26 32 14 17 1013.2 1013.2 0.0
23/12:30pm 28.6 25.6 18.7 55 6.4 ESE 32 35 17 19 1013.7 1013.7 0.0
23/12:00pm 28.6 25.8 19.0 56 6.2 ESE 32 37 17 20 1014.1 1014.1 0.0
23/11:30am 28.2 24.6 18.6 56 6.2 ESE 35 41 19 22 1014.2 1014.2 0.0
23/11:00am 27.6 23.5 18.3 57 5.9 ESE 37 43 20 23 1014.5 1014.5 0.0
23/10:30am 27.4 23.6 18.9 59 5.5 ESE 37 43 20 23 1015.0 1015.0 0.0
23/10:00am 26.8 22.5 17.8 57 5.7 ESE 37 43 20 23 1015.1 1015.1 0.0
23/09:30am 26.0 22.1 17.9 61 5.1 ESE 35 41 19 22 1015.1 1015.1 0.0
23/09:00am 25.6 21.6 17.5 61 5.1 SE 35 41 19 22 1014.8 1014.8 0.0
23/08:30am 25.0 20.1 17.2 62 4.8 SE 39 46 21 25 1014.6 1014.6 0.0
23/08:00am 24.9 19.8 16.9 61 4.9 SE 39 46 21 25 1014.3 1014.3 0.0
23/07:30am 24.7 19.6 16.7 61 4.9 SE 39 46 21 25 1013.8 1013.8 0.0
23/07:00am 24.6 20.6 17.6 65 4.4 SE 35 41 19 22 1013.6 1013.6 0.0
23/06:30am 24.8 20.6 18.0 66 4.3 SE 37 43 20 23 1013.3 1013.3 0.0
23/06:00am 24.8 22.4 19.0 70 3.7 SE 30 33 16 18 1013.1 1013.1 0.0
23/05:30am 24.4 24.2 20.5 79 2.5 SSE 22 28 12 15 1012.8 1012.8 0.0
23/05:00am 24.1 24.5 21.0 83 2.0 SSE 20 26 11 14 1012.4 1012.4 0.0
23/04:30am 24.3 24.4 21.2 83 2.0 SSE 22 24 12 13 1012.3 1012.3 0.0
23/04:00am 24.0 23.8 21.3 85 1.8 SSE 24 28 13 15 1012.4 1012.4 0.0
23/03:30am 23.9 24.7 21.8 88 1.4 S 20 24 11 13 1012.5 1012.5 0.0
23/03:00am 24.0 25.6 22.1 89 1.3 S 17 20 9 11 1012.3 1012.3 0.0
23/02:30am 24.8 27.2 23.0 90 1.2 SSE 15 17 8 9 1012.2 1012.2 0.0
23/02:00am 24.6 27.6 22.7 89 1.3 SE 11 13 6 7 1012.1 1012.1 0.0
23/01:30am 24.8 27.4 22.7 88 1.4 SE 13 17 7 9 1012.1 1012.1 0.0
23/01:00am 25.0 27.4 22.9 88 1.4 SSE 15 17 8 9 1012.1 1012.1 0.0
23/12:30am 25.1 27.7 22.6 86 1.7 SE 13 15 7 8 1012.0 1012.0 0.0
23/12:00am 25.3 28.2 22.4 84 1.9 SE 11 15 6 8 1012.3 1012.3 0.0
 
Date/Time
CST
Temp
°C
App
Temp
°C
Dew
Point
°C
Rel
Hum
%
Delta-T
°C
Wind Press
QNH
hPa
Press
MSL
hPa
Rain since
9am
mm
Dir  Spd
km/h
Gust
km/h
Spd
kts
Gust
kts
22/11:30pm 25.9 27.8 22.8 83 2.1 SE 17 20 9 11 1012.5 1012.5 0.0
22/11:00pm 26.0 28.3 22.1 79 2.6 E 13 15 7 8 1012.4 1012.4 0.0
22/10:30pm 25.7 28.8 21.1 76 3.0 E 6 7 3 4 1012.4 1012.4 0.0
22/10:00pm 26.1 28.8 21.3 75 3.2 ENE 9 13 5 7 1012.4 1012.4 0.0
22/09:30pm 26.4 27.9 21.2 73 3.4 ENE 15 17 8 9 1012.3 1012.3 0.0
22/09:00pm 26.5 27.4 20.8 71 3.8 ENE 17 20 9 11 1012.3 1012.3 0.0
22/08:30pm 26.6 27.1 20.9 71 3.8 ENE 19 22 10 12 1012.2 1012.2 0.0
22/08:00pm 26.6 26.9 20.4 68 4.1 ENE 19 20 10 11 1011.9 1011.9 0.0
22/07:30pm 26.6 27.7 20.4 68 4.1 ENE 15 20 8 11 1011.7 1011.7 0.0
22/07:00pm 26.8 28.1 20.2 67 4.3 ENE 13 19 7 10 1011.6 1011.6 0.0
22/06:30pm 27.1 27.3 19.4 62 5.0 ENE 17 20 9 11 1011.4 1011.4 0.0
22/06:00pm 27.6 28.0 19.9 63 5.0 ENE 17 20 9 11 1011.0 1011.0 0.0
22/05:30pm 28.2 28.8 19.4 59 5.7 ENE 15 19 8 10 1010.6 1010.6 0.0
22/05:00pm 28.8 28.6 19.7 58 5.9 ENE 20 24 11 13 1010.4 1010.4 0.0
22/04:30pm 29.5 29.8 19.5 55 6.5 ENE 17 22 9 12 1010.3 1010.3 0.0
22/04:00pm 29.9 29.5 19.3 53 6.9 ENE 20 24 11 13 1010.2 1010.2 0.0
22/03:30pm 30.2 30.1 19.9 54 6.8 E 20 24 11 13 1010.3 1010.3 0.0
22/03:00pm 30.6 30.2 19.3 51 7.4 E 20 26 11 14 1010.4 1010.4 0.0
22/02:30pm 30.4 29.7 19.4 51 7.2 E 22 26 12 14 1010.6 1010.6 0.0
22/02:00pm 30.6 29.5 18.7 49 7.7 E 22 28 12 15 1010.9 1010.9 0.0
22/01:30pm 30.3 29.8 20.0 54 6.8 E 22 26 12 14 1011.4 1011.4 0.0
22/01:00pm 30.1 28.8 19.8 54 6.8 E 26 30 14 16 1011.9 1011.9 0.0
22/12:30pm 29.4 26.5 18.8 53 6.8 ESE 32 35 17 19 1012.4 1012.4 0.0
22/12:00pm 29.1 26.1 19.1 54 6.5 ESE 33 39 18 21 1012.8 1012.8 0.0
22/11:30am 28.3 23.9 18.4 55 6.3 ESE 39 43 21 23 1013.1 1013.1 0.0
22/11:00am 28.0 24.5 19.5 60 5.5 ESE 37 43 20 23 1013.5 1013.5 0.0
22/10:30am 27.6 23.4 18.9 59 5.6 ESE 39 46 21 25 1013.7 1013.7 0.0
22/10:00am 27.2 23.3 18.8 60 5.4 ESE 37 43 20 23 1013.9 1013.9 0.0
22/09:30am 26.3 22.0 17.9 60 5.3 SE 37 43 20 23 1013.9 1013.9 0.0

Other formats

Comma delimited format used in spreadsheet applications
http://www.bom.gov.au/fwo/IDD60801/IDD60801.94248.axf

JavaScript Object Notation format (JSON) in row-major order
http://www.bom.gov.au/fwo/IDD60801/IDD60801.94248.json

Data quality

Most of these data are generated automatically and are frequently updated. Quality checks on data are not normally performed. It is possible for incorrect values to appear. Refer to information at About Latest Weather Observations and please check the disclaimer before using these data.